createdAt,value
2018-10-19T00:00:07.796Z,5.90
2018-10-19T00:01:07.813Z,7.60
2018-10-19T00:02:07.832Z,6.50
2018-10-19T00:03:07.856Z,6.40
2018-10-19T00:04:07.869Z,6.30
2018-10-19T00:05:07.907Z,5.50
2018-10-19T00:06:07.903Z,6.10
2018-10-19T00:07:07.924Z,6.10
2018-10-19T00:08:07.939Z,6.90
2018-10-19T00:09:07.994Z,5.90
2018-10-19T00:10:07.973Z,5.70
2018-10-19T00:11:08.041Z,5.60
2018-10-19T00:12:08.010Z,5.60
2018-10-19T00:13:08.026Z,6.00
2018-10-19T00:14:08.046Z,5.50
2018-10-19T00:15:08.135Z,6.00
2018-10-19T00:16:08.080Z,6.00
2018-10-19T00:17:08.126Z,5.50
2018-10-19T00:18:08.115Z,5.90
2018-10-19T00:19:08.134Z,5.50
2018-10-19T00:20:08.150Z,5.70
2018-10-19T00:21:08.258Z,5.60
2018-10-19T00:22:08.188Z,5.30
2018-10-19T00:23:08.212Z,5.70
2018-10-19T00:24:08.222Z,5.70
2018-10-19T00:25:08.240Z,5.30
2018-10-19T00:26:08.262Z,6.10
2018-10-19T00:27:08.330Z,5.20
2018-10-19T00:28:08.293Z,5.40
2018-10-19T00:29:08.316Z,5.80
2018-10-19T00:30:08.329Z,5.40
2018-10-19T00:31:08.347Z,5.10
2018-10-19T00:32:08.367Z,5.60
2018-10-19T00:33:08.467Z,5.90
2018-10-19T00:34:08.400Z,5.00
2018-10-19T00:35:08.506Z,5.60
2018-10-19T00:36:08.436Z,5.30
2018-10-19T00:37:08.454Z,5.20
2018-10-19T00:38:08.475Z,5.10
2018-10-19T00:39:08.546Z,4.90
2018-10-19T00:40:08.507Z,4.70
2018-10-19T00:41:08.557Z,5.10
2018-10-19T00:42:08.542Z,4.50
2018-10-19T00:43:08.561Z,5.20
2018-10-19T00:44:08.577Z,5.10
2018-10-19T00:45:08.679Z,5.20
2018-10-19T00:46:08.616Z,5.60
2018-10-19T00:47:08.637Z,6.10
2018-10-19T00:48:08.649Z,4.80
2018-10-19T00:49:08.666Z,4.90
2018-10-19T00:50:08.685Z,5.70
2018-10-19T00:51:08.787Z,5.50
2018-10-19T00:52:08.719Z,5.60
2018-10-19T00:53:08.860Z,6.00
2018-10-19T00:54:08.755Z,6.00
2018-10-19T00:55:08.774Z,5.10
2018-10-19T00:56:08.791Z,5.40
2018-10-19T00:57:08.964Z,5.60
2018-10-19T00:58:08.827Z,5.20
2018-10-19T00:59:08.905Z,6.10
2018-10-19T01:00:08.862Z,5.70
2018-10-19T01:01:08.884Z,6.00
2018-10-19T01:02:08.899Z,6.30
2018-10-19T01:03:08.983Z,6.10
2018-10-19T01:04:08.933Z,5.20
2018-10-19T01:05:09.008Z,5.70
2018-10-19T01:06:08.968Z,5.70
2018-10-19T01:07:08.993Z,6.10
2018-10-19T01:08:09.004Z,6.70
2018-10-19T01:09:09.083Z,6.40
2018-10-19T01:10:09.040Z,6.60
2018-10-19T01:11:09.196Z,6.30
2018-10-19T01:12:09.078Z,6.10
2018-10-19T01:13:09.097Z,5.50
2018-10-19T01:14:09.110Z,5.20
2018-10-19T01:15:09.172Z,6.00
2018-10-19T01:16:09.148Z,6.40
2018-10-19T01:17:09.233Z,5.60
2018-10-19T01:18:09.182Z,5.70
2018-10-19T01:19:09.200Z,6.20
2018-10-19T01:20:09.216Z,5.30
2018-10-19T01:21:09.326Z,5.90
2018-10-19T01:22:09.253Z,6.00
2018-10-19T01:23:09.380Z,5.50
2018-10-19T01:24:09.287Z,5.90
2018-10-19T01:25:09.305Z,6.40
2018-10-19T01:26:09.323Z,6.50
2018-10-19T01:27:09.353Z,6.40
2018-10-19T01:28:09.358Z,6.50
2018-10-19T01:29:09.405Z,5.80
2018-10-19T01:30:09.393Z,6.50
2018-10-19T01:31:09.416Z,6.40
2018-10-19T01:32:09.429Z,6.20
2018-10-19T01:33:09.629Z,5.60
2018-10-19T01:34:09.468Z,5.70
2018-10-19T01:35:09.524Z,6.10
2018-10-19T01:36:09.500Z,5.90
2018-10-19T01:37:09.518Z,5.80
2018-10-19T01:38:09.538Z,5.70
2018-10-19T01:39:09.638Z,5.90
2018-10-19T01:40:09.571Z,7.00
2018-10-19T01:41:09.681Z,5.60
2018-10-19T01:42:09.607Z,6.20
2018-10-19T01:43:09.625Z,6.60
2018-10-19T01:44:09.641Z,6.10
2018-10-19T01:45:09.741Z,6.30
2018-10-19T01:46:09.677Z,6.40
2018-10-19T01:47:09.821Z,5.70
2018-10-19T01:48:09.712Z,5.90
2018-10-19T01:49:09.730Z,6.70
2018-10-19T01:50:09.749Z,6.70
2018-10-19T01:51:09.780Z,6.40
2018-10-19T01:52:09.783Z,6.30
2018-10-19T01:53:09.855Z,6.70
2018-10-19T01:54:09.818Z,6.30
2018-10-19T01:55:09.838Z,6.20
2018-10-19T01:56:09.853Z,6.70
2018-10-19T01:57:09.963Z,6.40
2018-10-19T01:58:09.889Z,7.30
2018-10-19T01:59:09.975Z,6.70
2018-10-19T02:00:09.924Z,6.80
2018-10-19T02:01:09.943Z,6.20
2018-10-19T02:02:09.960Z,7.00
2018-10-19T02:03:10.082Z,6.80
2018-10-19T02:04:09.995Z,6.10
2018-10-19T02:05:10.103Z,6.60
2018-10-19T02:06:10.031Z,6.70
2018-10-19T02:07:10.047Z,6.80
2018-10-19T02:08:10.065Z,6.10
2018-10-19T02:09:10.161Z,6.00
2018-10-19T02:10:10.102Z,6.50
2018-10-19T02:11:10.196Z,6.30
2018-10-19T02:12:10.136Z,6.50
2018-10-19T02:13:10.152Z,6.30
2018-10-19T02:14:10.171Z,6.30
2018-10-19T02:15:10.255Z,6.40
2018-10-19T02:16:10.206Z,6.10
2018-10-19T02:17:10.350Z,6.80
2018-10-19T02:18:10.242Z,5.90
2018-10-19T02:19:10.260Z,6.90
2018-10-19T02:20:10.277Z,6.70
2018-10-19T02:21:10.543Z,6.80
2018-10-19T02:22:10.312Z,6.40
2018-10-19T02:23:10.390Z,6.40
2018-10-19T02:24:10.345Z,6.90
2018-10-19T02:25:10.365Z,7.40
2018-10-19T02:26:10.381Z,6.60
2018-10-19T02:27:10.463Z,6.90
2018-10-19T02:28:10.416Z,6.90
2018-10-19T02:29:10.478Z,6.80
2018-10-19T02:30:10.452Z,7.00
2018-10-19T02:31:10.470Z,6.60
2018-10-19T02:32:10.485Z,6.90
2018-10-19T02:33:10.634Z,7.30
2018-10-19T02:34:10.521Z,6.50
2018-10-19T02:35:10.658Z,7.60
2018-10-19T02:36:10.555Z,7.80
2018-10-19T02:37:10.573Z,7.50
2018-10-19T02:38:10.590Z,8.20
2018-10-19T02:39:10.719Z,7.00
2018-10-19T02:40:10.626Z,7.70
2018-10-19T02:41:10.654Z,7.60
2018-10-19T02:42:10.665Z,7.20
2018-10-19T02:43:10.680Z,7.30
2018-10-19T02:44:10.694Z,7.60
2018-10-19T02:45:10.818Z,7.70
2018-10-19T02:46:10.730Z,8.10
2018-10-19T02:47:10.775Z,7.10
2018-10-19T02:48:10.763Z,7.40
2018-10-19T02:49:10.781Z,7.40
2018-10-19T02:50:10.799Z,8.40
2018-10-19T02:51:10.839Z,8.30
2018-10-19T02:52:10.833Z,7.40
2018-10-19T02:53:10.875Z,7.80
2018-10-19T02:54:10.878Z,8.00
2018-10-19T02:55:10.886Z,6.80
2018-10-19T02:56:10.901Z,8.40
2018-10-19T02:57:11.028Z,8.00
2018-10-19T02:58:10.936Z,7.60
2018-10-19T02:59:10.995Z,7.20
2018-10-19T03:00:10.971Z,8.30
2018-10-19T03:01:10.987Z,8.20
2018-10-19T03:02:11.005Z,8.70
2018-10-19T03:03:11.043Z,8.40
2018-10-19T03:04:11.039Z,8.00
2018-10-19T03:05:11.087Z,7.80
2018-10-19T03:06:11.074Z,8.50
2018-10-19T03:07:11.101Z,8.30
2018-10-19T03:08:11.110Z,8.40
2018-10-19T03:09:11.229Z,8.30
2018-10-19T03:10:11.142Z,8.30
2018-10-19T03:11:11.286Z,8.10
2018-10-19T03:12:11.176Z,8.40
2018-10-19T03:13:11.194Z,8.50
2018-10-19T03:14:11.213Z,8.60
2018-10-19T03:15:11.313Z,8.70
2018-10-19T03:16:11.248Z,8.00
2018-10-19T03:17:11.329Z,8.00
2018-10-19T03:18:11.279Z,7.90
2018-10-19T03:19:11.297Z,8.10
2018-10-19T03:20:11.314Z,8.00
2018-10-19T03:21:11.406Z,7.90
2018-10-19T03:22:11.348Z,8.70
2018-10-19T03:23:11.462Z,9.00
2018-10-19T03:24:11.383Z,8.70
2018-10-19T03:25:11.399Z,8.70
2018-10-19T03:26:11.423Z,7.70
2018-10-19T03:27:11.446Z,9.20
2018-10-19T03:28:11.450Z,8.70
2018-10-19T03:29:11.566Z,8.90
2018-10-19T03:30:11.485Z,8.00
2018-10-19T03:31:11.588Z,7.80
2018-10-19T03:32:11.518Z,8.40
2018-10-19T03:33:11.603Z,8.60
2018-10-19T03:34:11.554Z,8.40
2018-10-19T03:35:11.634Z,8.30
2018-10-19T03:36:11.587Z,8.20
2018-10-19T03:37:11.608Z,8.30
2018-10-19T03:38:11.620Z,8.50
2018-10-19T03:39:11.756Z,8.60
2018-10-19T03:40:11.653Z,8.80
2018-10-19T03:41:11.783Z,8.70
2018-10-19T03:42:11.696Z,8.50
2018-10-19T03:43:11.706Z,8.20
2018-10-19T03:44:11.723Z,9.20
2018-10-19T03:45:11.859Z,8.80
2018-10-19T03:46:11.772Z,9.40
2018-10-19T03:47:11.860Z,9.50
2018-10-19T03:48:11.790Z,8.80
2018-10-19T03:49:11.838Z,8.70
2018-10-19T03:50:11.827Z,10.10
2018-10-19T03:51:11.935Z,9.60
2018-10-19T03:52:11.858Z,8.30
2018-10-19T03:53:11.919Z,9.40
2018-10-19T03:54:11.892Z,9.80
2018-10-19T03:55:11.910Z,9.50
2018-10-19T03:56:11.926Z,9.30
2018-10-19T03:57:12.041Z,9.50
2018-10-19T03:58:11.961Z,10.10
2018-10-19T03:59:12.023Z,9.20
2018-10-19T04:00:11.994Z,8.60
2018-10-19T04:01:12.010Z,10.00
2018-10-19T04:02:12.028Z,10.10
2018-10-19T04:03:12.129Z,10.10
2018-10-19T04:04:12.062Z,10.10
2018-10-19T04:05:12.142Z,10.50
2018-10-19T04:06:12.097Z,9.90
2018-10-19T04:07:12.114Z,10.40
2018-10-19T04:08:12.130Z,9.70
2018-10-19T04:09:12.237Z,9.40
2018-10-19T04:10:12.164Z,10.30
2018-10-19T04:11:12.243Z,10.00
2018-10-19T04:12:12.197Z,9.80
2018-10-19T04:13:12.215Z,9.80
2018-10-19T04:14:12.232Z,9.90
2018-10-19T04:15:12.370Z,10.10
2018-10-19T04:16:12.266Z,9.40
2018-10-19T04:17:12.367Z,10.00
2018-10-19T04:18:12.500Z,10.40
2018-10-19T04:19:12.317Z,10.40
2018-10-19T04:20:12.333Z,10.80
2018-10-19T04:21:12.437Z,10.70
2018-10-19T04:22:18.635Z,10.90
2018-10-19T04:23:12.470Z,10.20
2018-10-19T04:24:12.400Z,10.20
2018-10-19T04:25:12.418Z,10.60
2018-10-19T04:26:12.436Z,10.50
2018-10-19T04:27:12.566Z,10.60
2018-10-19T04:28:12.468Z,10.70
2018-10-19T04:29:12.576Z,10.40
2018-10-19T04:30:12.504Z,10.80
2018-10-19T04:31:12.521Z,10.60
2018-10-19T04:32:12.536Z,10.60
2018-10-19T04:33:12.679Z,11.30
2018-10-19T04:34:12.571Z,10.60
2018-10-19T04:35:12.640Z,10.80
2018-10-19T04:36:12.604Z,11.40
2018-10-19T04:37:12.622Z,12.30
2018-10-19T04:38:12.638Z,10.50
2018-10-19T04:39:12.724Z,10.50
2018-10-19T04:40:12.671Z,11.20
2018-10-19T04:41:12.945Z,11.80
2018-10-19T04:42:12.789Z,11.60
2018-10-19T04:43:12.724Z,11.50
2018-10-19T04:44:12.737Z,11.30
2018-10-19T04:45:12.794Z,11.80
2018-10-19T04:46:12.773Z,11.50
2018-10-19T04:47:12.796Z,11.50
2018-10-19T04:48:12.807Z,11.70
2018-10-19T04:49:12.825Z,11.50
2018-10-19T04:50:12.841Z,11.70
2018-10-19T04:51:12.933Z,11.90
2018-10-19T04:52:12.875Z,11.80
2018-10-19T04:53:12.917Z,11.40
2018-10-19T04:54:12.908Z,11.90
2018-10-19T04:55:12.925Z,11.70
2018-10-19T04:56:12.941Z,11.70
2018-10-19T04:57:13.088Z,12.40
2018-10-19T04:58:12.976Z,11.90
2018-10-19T04:59:12.998Z,13.30
2018-10-19T05:00:13.009Z,12.50
2018-10-19T05:01:13.026Z,13.00
2018-10-19T05:02:13.043Z,12.80
2018-10-19T05:03:13.306Z,13.10
2018-10-19T05:04:13.075Z,12.20
2018-10-19T05:05:13.212Z,11.80
2018-10-19T05:06:13.136Z,12.30
2018-10-19T05:07:13.128Z,13.20
2018-10-19T05:08:13.207Z,12.60
2018-10-19T05:09:13.166Z,12.90
2018-10-19T05:10:13.179Z,13.60
2018-10-19T05:11:13.297Z,12.90
2018-10-19T05:12:13.215Z,13.60
2018-10-19T05:13:13.228Z,13.30
2018-10-19T05:14:13.293Z,13.50
2018-10-19T05:15:13.271Z,13.00
2018-10-19T05:16:13.277Z,13.70
2018-10-19T05:17:13.398Z,14.00
2018-10-19T05:18:13.312Z,13.40
2018-10-19T05:19:13.330Z,13.60
2018-10-19T05:20:13.477Z,13.90
2018-10-19T05:21:13.362Z,13.70
2018-10-19T05:22:13.379Z,15.50
2018-10-19T05:23:13.455Z,14.00
2018-10-19T05:24:13.412Z,13.70
2018-10-19T05:25:13.430Z,13.40
2018-10-19T05:26:13.556Z,14.80
2018-10-19T05:27:13.466Z,14.70
2018-10-19T05:28:13.479Z,14.80
2018-10-19T05:29:13.567Z,13.90
2018-10-19T05:30:13.513Z,14.00
2018-10-19T05:31:13.533Z,14.50
2018-10-19T05:32:13.602Z,14.10
2018-10-19T05:33:13.564Z,15.40
2018-10-19T05:34:13.582Z,13.70
2018-10-19T05:35:13.653Z,14.30
2018-10-19T05:36:13.612Z,14.50
2018-10-19T05:37:13.629Z,15.40
2018-10-19T05:38:13.677Z,14.30
2018-10-19T05:39:13.669Z,13.90
2018-10-19T05:40:13.679Z,14.30
2018-10-19T05:41:13.837Z,14.20
2018-10-19T05:42:13.712Z,13.50
2018-10-19T05:43:13.728Z,13.60
2018-10-19T05:44:13.840Z,14.40
2018-10-19T05:45:13.761Z,14.10
2018-10-19T05:46:13.778Z,14.50
2018-10-19T05:47:13.877Z,14.50
2018-10-19T05:48:13.818Z,15.00
2018-10-19T05:49:13.829Z,14.80
2018-10-19T05:50:13.932Z,15.20
2018-10-19T05:51:13.862Z,13.80
2018-10-19T05:52:13.979Z,14.30
2018-10-19T05:53:13.993Z,15.70
2018-10-19T05:54:13.912Z,14.20
2018-10-19T05:55:13.930Z,15.20
2018-10-19T05:56:14.017Z,13.20
2018-10-19T05:57:13.963Z,15.00
2018-10-19T05:58:13.978Z,15.10
2018-10-19T05:59:14.043Z,14.50
2018-10-19T06:00:14.012Z,14.30
2018-10-19T06:01:14.029Z,14.90
2018-10-19T06:02:14.119Z,15.10
2018-10-19T06:03:14.063Z,14.00
2018-10-19T06:04:14.079Z,14.20
2018-10-19T06:05:14.235Z,14.50
2018-10-19T06:06:14.112Z,15.40
2018-10-19T06:07:14.129Z,14.80
2018-10-19T06:08:14.223Z,14.40
2018-10-19T06:09:14.163Z,15.30
2018-10-19T06:10:14.178Z,15.40
2018-10-19T06:11:14.335Z,15.20
2018-10-19T06:12:14.211Z,14.90
2018-10-19T06:13:14.229Z,14.90
2018-10-19T06:14:14.281Z,14.60
2018-10-19T06:15:14.263Z,15.10
2018-10-19T06:16:14.277Z,15.20
2018-10-19T06:17:14.315Z,15.70
2018-10-19T06:18:14.312Z,14.90
2018-10-19T06:19:14.329Z,15.10
2018-10-19T06:20:14.451Z,14.60
2018-10-19T06:21:14.514Z,14.60
2018-10-19T06:22:14.382Z,15.50
2018-10-19T06:23:14.462Z,14.80
2018-10-19T06:24:14.410Z,15.00
2018-10-19T06:25:14.428Z,14.40
2018-10-19T06:26:14.464Z,14.90
2018-10-19T06:27:14.462Z,14.00
2018-10-19T06:28:14.479Z,15.90
2018-10-19T06:29:14.601Z,15.80
2018-10-19T06:30:14.512Z,14.80
2018-10-19T06:31:14.528Z,16.00
2018-10-19T06:32:14.575Z,16.30
2018-10-19T06:33:14.562Z,15.30
2018-10-19T06:34:14.578Z,16.30
2018-10-19T06:35:14.638Z,15.60
2018-10-19T06:36:14.611Z,15.10
2018-10-19T06:37:14.630Z,14.40
2018-10-19T06:38:14.676Z,15.30
2018-10-19T06:39:14.662Z,15.00
2018-10-19T06:40:14.678Z,15.00
2018-10-19T06:41:14.783Z,15.40
2018-10-19T06:42:14.711Z,14.70
2018-10-19T06:43:14.729Z,16.00
2018-10-19T06:44:14.778Z,15.90
2018-10-19T06:45:14.761Z,14.80
2018-10-19T06:46:14.777Z,15.90
2018-10-19T06:47:14.855Z,15.80
2018-10-19T06:48:14.811Z,17.50
2018-10-19T06:49:14.828Z,16.10
2018-10-19T06:50:14.960Z,16.50
2018-10-19T06:51:14.861Z,15.90
2018-10-19T06:52:14.878Z,16.30
2018-10-19T06:53:15.005Z,16.10
2018-10-19T06:54:14.911Z,16.00
2018-10-19T06:55:14.928Z,15.90
2018-10-19T06:56:15.048Z,14.80
2018-10-19T06:57:14.962Z,16.10
2018-10-19T06:58:14.978Z,16.70
2018-10-19T06:59:15.032Z,16.90
2018-10-19T07:00:15.012Z,15.90
2018-10-19T07:01:15.030Z,16.20
2018-10-19T07:02:15.147Z,19.00
2018-10-19T07:03:15.066Z,15.90
2018-10-19T07:04:15.078Z,15.70
2018-10-19T07:05:15.268Z,16.60
2018-10-19T07:06:15.197Z,16.00
2018-10-19T07:07:15.129Z,15.60
2018-10-19T07:08:15.169Z,15.30
2018-10-19T07:09:15.162Z,15.90
2018-10-19T07:10:15.180Z,15.90
2018-10-19T07:11:15.312Z,15.80
2018-10-19T07:12:15.289Z,16.10
2018-10-19T07:13:15.234Z,16.60
2018-10-19T07:14:15.337Z,16.20
2018-10-19T07:15:15.264Z,15.70
2018-10-19T07:16:15.280Z,15.80
2018-10-19T07:17:15.515Z,14.40
2018-10-19T07:18:15.317Z,17.40
2018-10-19T07:19:15.332Z,16.20
2018-10-19T07:20:15.398Z,15.70
2018-10-19T07:21:15.366Z,16.50
2018-10-19T07:22:15.382Z,17.50
2018-10-19T07:23:15.500Z,15.90
2018-10-19T07:24:15.420Z,16.10
2018-10-19T07:25:15.431Z,15.90
2018-10-19T07:26:15.506Z,17.50
2018-10-19T07:27:15.466Z,16.50
2018-10-19T07:28:15.482Z,16.40
2018-10-19T07:29:15.572Z,15.90
2018-10-19T07:30:15.517Z,17.00
2018-10-19T07:31:15.534Z,16.60
2018-10-19T07:32:15.649Z,16.60
2018-10-19T07:33:15.568Z,16.70
2018-10-19T07:34:15.589Z,17.10
2018-10-19T07:35:15.712Z,16.10
2018-10-19T07:36:15.721Z,16.50
2018-10-19T07:37:15.634Z,16.90
2018-10-19T07:38:15.712Z,15.60
2018-10-19T07:39:15.668Z,16.10
2018-10-19T07:40:15.692Z,16.70
2018-10-19T07:41:15.831Z,17.30
2018-10-19T07:42:15.785Z,16.20
2018-10-19T07:43:15.737Z,16.10
2018-10-19T07:44:15.888Z,16.30
2018-10-19T07:45:15.771Z,15.70
2018-10-19T07:46:15.788Z,16.80
2018-10-19T07:47:15.920Z,16.80
2018-10-19T07:48:15.823Z,17.10
2018-10-19T07:49:15.839Z,16.40
2018-10-19T07:50:15.941Z,16.00
2018-10-19T07:51:15.872Z,16.10
2018-10-19T07:52:15.889Z,14.90
2018-10-19T07:53:15.906Z,17.70
2018-10-19T07:54:15.957Z,16.50
2018-10-19T07:55:15.941Z,16.00
2018-10-19T07:56:16.078Z,15.90
2018-10-19T07:57:15.976Z,14.80
2018-10-19T07:58:15.993Z,15.30
2018-10-19T07:59:16.135Z,15.20
2018-10-19T08:00:16.066Z,14.00
2018-10-19T08:01:16.121Z,14.40
2018-10-19T08:02:16.104Z,14.70
2018-10-19T08:03:16.078Z,14.20
2018-10-19T08:04:16.101Z,14.50
2018-10-19T08:05:16.165Z,15.00
2018-10-19T08:06:16.133Z,13.90
2018-10-19T08:07:16.147Z,14.90
2018-10-19T08:08:16.164Z,14.00
2018-10-19T08:09:16.181Z,15.00
2018-10-19T08:10:16.198Z,14.80
2018-10-19T08:11:16.339Z,14.30
2018-10-19T08:12:16.232Z,14.60
2018-10-19T08:13:16.249Z,14.70
2018-10-19T08:14:16.328Z,14.00
2018-10-19T08:15:16.289Z,13.80
2018-10-19T08:16:16.327Z,14.40
2018-10-19T08:17:16.395Z,14.40
2018-10-19T08:18:16.339Z,14.70
2018-10-19T08:19:16.355Z,14.00
2018-10-19T08:20:16.466Z,13.30
2018-10-19T08:21:16.454Z,13.30
2018-10-19T08:22:16.410Z,12.90
2018-10-19T08:23:16.451Z,13.50
2018-10-19T08:24:16.441Z,11.90
2018-10-19T08:25:16.461Z,11.80
2018-10-19T08:26:16.514Z,12.40
2018-10-19T08:27:16.558Z,12.80
2018-10-19T08:28:16.511Z,11.90
2018-10-19T08:29:16.528Z,12.20
2018-10-19T08:30:16.546Z,13.40
2018-10-19T08:31:16.567Z,12.40
2018-10-19T08:32:16.694Z,11.30
2018-10-19T08:33:16.599Z,12.10
2018-10-19T08:34:16.617Z,12.30
2018-10-19T08:35:16.634Z,11.80
2018-10-19T08:36:16.652Z,12.20
2018-10-19T08:37:16.669Z,11.50
2018-10-19T08:38:16.691Z,12.20
2018-10-19T08:39:16.705Z,12.30
2018-10-19T08:40:16.724Z,11.80
2018-10-19T08:41:16.815Z,11.60
2018-10-19T08:42:16.757Z,11.00
2018-10-19T08:43:16.904Z,11.80
2018-10-19T08:44:16.793Z,11.10
2018-10-19T08:45:16.884Z,10.50
2018-10-19T08:46:16.829Z,10.40
2018-10-19T08:47:16.855Z,11.70
2018-10-19T08:48:16.869Z,11.60
2018-10-19T08:49:17.000Z,11.70
2018-10-19T08:50:16.900Z,11.00
2018-10-19T08:51:17.012Z,11.10
2018-10-19T08:52:16.936Z,11.60
2018-10-19T08:53:17.075Z,12.30
2018-10-19T08:54:16.972Z,11.10
2018-10-19T08:55:16.993Z,11.30
2018-10-19T08:56:17.007Z,10.10
2018-10-19T08:57:17.128Z,9.80
2018-10-19T08:58:17.116Z,10.20
2018-10-19T08:59:17.162Z,10.60
2018-10-19T09:00:17.206Z,10.30
2018-10-19T09:01:17.101Z,9.80
2018-10-19T09:02:17.118Z,9.30
2018-10-19T09:03:17.312Z,10.10
2018-10-19T09:04:17.153Z,9.10
2018-10-19T09:05:17.272Z,9.20
2018-10-19T09:06:17.192Z,10.20
2018-10-19T09:07:17.207Z,10.80
2018-10-19T09:08:17.225Z,9.50
2018-10-19T09:09:17.357Z,9.10
2018-10-19T09:10:17.265Z,8.90
2018-10-19T09:11:17.364Z,8.30
2018-10-19T09:12:17.300Z,8.40
2018-10-19T09:13:17.319Z,9.10
2018-10-19T09:14:17.335Z,8.50
2018-10-19T09:15:17.436Z,8.60
2018-10-19T09:16:17.372Z,8.10
2018-10-19T09:17:17.492Z,8.40
2018-10-19T09:18:17.457Z,7.40
2018-10-19T09:19:17.427Z,8.40
2018-10-19T09:20:17.446Z,8.50
2018-10-19T09:21:17.465Z,9.00
2018-10-19T09:22:17.487Z,9.60
2018-10-19T09:23:17.502Z,11.80
2018-10-19T09:24:17.525Z,13.70
2018-10-19T09:25:17.541Z,9.80
2018-10-19T09:26:17.557Z,9.40
2018-10-19T09:27:17.593Z,8.20
2018-10-19T09:28:17.593Z,7.70
2018-10-19T09:29:17.635Z,7.60
2018-10-19T09:30:17.632Z,7.70
2018-10-19T09:31:17.651Z,7.70
2018-10-19T09:32:18.119Z,8.00
2018-10-19T09:33:17.694Z,8.10
2018-10-19T09:34:17.707Z,7.30
2018-10-19T09:35:17.763Z,7.90
2018-10-19T09:36:17.857Z,23.50
2018-10-19T09:37:17.763Z,13.80
2018-10-19T09:38:17.782Z,9.20
2018-10-19T09:39:17.804Z,8.90
2018-10-19T09:40:17.874Z,10.50
2018-10-19T09:41:17.886Z,18.50
2018-10-19T09:42:17.857Z,19.70
2018-10-19T09:43:17.878Z,8.00
2018-10-19T09:44:17.895Z,8.40
2018-10-19T09:45:17.915Z,9.30
2018-10-19T09:46:17.934Z,8.50
2018-10-19T09:47:18.004Z,7.80
2018-10-19T09:48:17.972Z,7.00
2018-10-19T09:49:17.991Z,6.40
2018-10-19T09:50:18.210Z,6.90
2018-10-19T09:51:18.030Z,7.40
2018-10-19T09:52:18.048Z,7.80
2018-10-19T09:53:18.068Z,7.20
2018-10-19T09:54:18.088Z,7.90
2018-10-19T09:55:18.144Z,8.10
2018-10-19T09:56:18.146Z,8.70
2018-10-19T09:57:18.145Z,7.70
2018-10-19T09:58:18.178Z,7.10
2018-10-19T09:59:18.228Z,7.50
2018-10-19T10:00:18.201Z,6.80
2018-10-19T10:01:18.342Z,7.40
2018-10-19T10:02:18.241Z,7.80
2018-10-19T10:03:18.260Z,7.30
2018-10-19T10:04:18.278Z,7.80
2018-10-19T10:05:18.300Z,8.80
2018-10-19T10:06:18.317Z,8.20
2018-10-19T10:07:18.339Z,8.60
2018-10-19T10:08:18.355Z,8.20
2018-10-19T10:09:18.375Z,8.10
2018-10-19T10:10:18.394Z,7.70
2018-10-19T10:11:18.415Z,7.90
2018-10-19T10:12:18.432Z,7.90
2018-10-19T10:13:18.453Z,7.40
2018-10-19T10:14:18.472Z,7.20
2018-10-19T10:15:18.599Z,6.80
2018-10-19T10:16:18.510Z,7.40
2018-10-19T10:17:18.530Z,7.80
2018-10-19T10:18:18.550Z,8.30
2018-10-19T10:19:18.569Z,9.00
2018-10-19T10:20:18.588Z,7.70
2018-10-19T10:21:18.607Z,8.10
2018-10-19T10:22:18.628Z,7.90
2018-10-19T10:23:18.647Z,8.90
2018-10-19T10:24:18.666Z,10.70
2018-10-19T10:25:18.820Z,14.00
2018-10-19T10:26:18.706Z,9.80
2018-10-19T10:27:18.726Z,9.70
2018-10-19T10:28:18.744Z,8.00
2018-10-19T10:29:18.765Z,10.10
2018-10-19T10:30:18.789Z,7.90
2018-10-19T10:31:18.810Z,7.50
2018-10-19T10:32:18.847Z,8.00
2018-10-19T10:33:18.845Z,8.70
2018-10-19T10:34:18.863Z,8.20
2018-10-19T10:35:19.884Z,7.80
2018-10-19T10:36:18.902Z,7.30
2018-10-19T10:37:18.928Z,6.90
2018-10-19T10:38:18.941Z,7.80
2018-10-19T10:39:19.041Z,7.30
2018-10-19T10:40:19.078Z,7.30
2018-10-19T10:41:19.000Z,8.00
2018-10-19T10:42:19.021Z,8.70
2018-10-19T10:43:19.040Z,7.50
2018-10-19T10:44:19.060Z,6.30
2018-10-19T10:45:19.079Z,7.20
2018-10-19T10:46:19.107Z,8.20
2018-10-19T10:47:19.119Z,17.40
2018-10-19T10:48:19.138Z,10.40
2018-10-19T10:49:19.159Z,8.80
2018-10-19T10:50:19.178Z,7.20
2018-10-19T10:51:19.199Z,7.10
2018-10-19T10:52:19.218Z,7.60
2018-10-19T10:53:19.238Z,7.60
2018-10-19T10:54:19.258Z,7.80
2018-10-19T10:55:19.417Z,7.90
2018-10-19T10:56:19.648Z,7.60
2018-10-19T10:57:19.316Z,7.10
2018-10-19T10:58:19.345Z,7.20
2018-10-19T10:59:19.359Z,7.60
2018-10-19T11:00:19.376Z,6.30
2018-10-19T11:01:19.398Z,7.00
2018-10-19T11:02:19.443Z,6.90
2018-10-19T11:03:19.436Z,6.60
2018-10-19T11:04:19.457Z,7.20
2018-10-19T11:05:19.476Z,6.20
2018-10-19T11:06:19.499Z,6.20
2018-10-19T11:07:19.618Z,6.90
2018-10-19T11:08:19.540Z,7.80
2018-10-19T11:09:19.556Z,7.60
2018-10-19T11:10:19.577Z,7.20
2018-10-19T11:11:19.597Z,6.60
2018-10-19T11:12:19.618Z,6.60
2018-10-19T11:13:19.643Z,7.30
2018-10-19T11:14:19.657Z,5.70
2018-10-19T11:15:19.678Z,6.10
2018-10-19T11:16:19.702Z,5.80
2018-10-19T11:17:19.718Z,6.30
2018-10-19T11:18:19.739Z,5.90
2018-10-19T11:19:19.758Z,5.90
2018-10-19T11:20:19.779Z,6.20
2018-10-19T11:21:19.801Z,5.80
2018-10-19T11:22:19.820Z,6.40
2018-10-19T11:23:19.841Z,6.60
2018-10-19T11:24:19.860Z,6.50
2018-10-19T11:25:19.881Z,6.40
2018-10-19T11:26:19.902Z,6.00
2018-10-19T11:27:19.923Z,6.00
2018-10-19T11:28:19.943Z,5.90
2018-10-19T11:29:19.963Z,7.10
2018-10-19T11:30:19.984Z,5.80
2018-10-19T11:31:20.005Z,6.20
2018-10-19T11:32:20.024Z,5.40
2018-10-19T11:33:20.045Z,6.60
2018-10-19T11:34:20.066Z,5.60
2018-10-19T11:35:20.086Z,6.10
2018-10-19T11:36:20.106Z,6.30
2018-10-19T11:37:20.152Z,5.30
2018-10-19T11:38:20.147Z,5.50
2018-10-19T11:39:20.168Z,5.30
2018-10-19T11:40:20.188Z,5.10
2018-10-19T11:41:20.209Z,5.10
2018-10-19T11:42:20.231Z,5.20
2018-10-19T11:43:20.250Z,5.50
2018-10-19T11:44:20.270Z,5.20
2018-10-19T11:45:20.292Z,5.50
2018-10-19T11:46:20.312Z,5.10
2018-10-19T11:47:20.333Z,5.70
2018-10-19T11:48:20.355Z,5.60
2018-10-19T11:49:20.433Z,5.60
2018-10-19T11:50:20.406Z,5.40
2018-10-19T11:51:20.414Z,5.00
2018-10-19T11:52:20.435Z,5.80
2018-10-19T11:53:20.455Z,6.00
2018-10-19T11:54:20.476Z,5.60
2018-10-19T11:55:20.497Z,6.50
2018-10-19T11:56:20.516Z,4.70
2018-10-19T11:57:20.538Z,5.60
2018-10-19T11:58:20.558Z,5.70
2018-10-19T11:59:20.579Z,5.20
2018-10-19T12:00:20.600Z,6.00
2018-10-19T12:01:20.619Z,5.80
2018-10-19T12:02:20.642Z,5.50
2018-10-19T12:03:20.663Z,5.60
2018-10-19T12:04:20.691Z,5.80
2018-10-19T12:05:20.701Z,5.50
2018-10-19T12:06:20.722Z,5.00
2018-10-19T12:07:20.743Z,5.60
2018-10-19T12:08:20.763Z,4.60
2018-10-19T12:09:20.784Z,5.20
2018-10-19T12:10:20.806Z,5.80
2018-10-19T12:11:20.826Z,4.80
2018-10-19T12:12:20.845Z,4.90
2018-10-19T12:13:20.871Z,4.80
2018-10-19T12:14:20.889Z,6.50
2018-10-19T12:15:20.908Z,20.10
2018-10-19T12:16:20.962Z,8.80
2018-10-19T12:17:20.949Z,6.40
2018-10-19T12:18:20.973Z,5.50
2018-10-19T12:19:20.991Z,6.80
2018-10-19T12:20:21.011Z,6.50
2018-10-19T12:21:21.093Z,5.60
2018-10-19T12:22:21.053Z,4.70
2018-10-19T12:23:21.073Z,5.50
2018-10-19T12:24:21.098Z,4.60
2018-10-19T12:25:21.114Z,5.90
2018-10-19T12:26:21.135Z,5.20
2018-10-19T12:27:21.155Z,4.90
2018-10-19T12:28:21.176Z,4.90
2018-10-19T12:29:21.198Z,5.50
2018-10-19T12:30:21.217Z,5.30
2018-10-19T12:31:21.239Z,4.60
2018-10-19T12:32:21.409Z,4.40
2018-10-19T12:33:21.280Z,4.50
2018-10-19T12:34:21.301Z,5.60
2018-10-19T12:35:21.375Z,4.90
2018-10-19T12:36:21.343Z,5.30
2018-10-19T12:37:21.368Z,5.40
2018-10-19T12:38:21.384Z,5.60
2018-10-19T12:39:21.408Z,6.40
2018-10-19T12:40:21.425Z,4.90
2018-10-19T12:41:21.447Z,4.30
2018-10-19T12:42:21.467Z,4.70
2018-10-19T12:43:21.489Z,5.70
2018-10-19T12:44:21.509Z,5.20
2018-10-19T12:45:21.531Z,4.30
2018-10-19T12:46:21.552Z,4.50
2018-10-19T12:47:21.642Z,5.60
2018-10-19T12:48:21.593Z,5.20
2018-10-19T12:49:21.614Z,5.10
2018-10-19T12:50:21.635Z,6.00
2018-10-19T12:51:21.659Z,5.10
2018-10-19T12:52:21.677Z,5.20
2018-10-19T12:53:21.698Z,4.90
2018-10-19T12:54:22.220Z,5.10
2018-10-19T12:55:21.741Z,4.60
2018-10-19T12:56:21.760Z,4.60
2018-10-19T12:57:21.838Z,4.50
2018-10-19T12:58:21.803Z,4.70
2018-10-19T12:59:21.824Z,4.50
2018-10-19T13:00:21.844Z,4.90
2018-10-19T13:01:21.866Z,5.10
2018-10-19T13:02:21.887Z,4.80
2018-10-19T13:03:22.074Z,5.20
2018-10-19T13:04:21.928Z,5.40
2018-10-19T13:05:21.953Z,4.10
2018-10-19T13:06:21.973Z,5.90
2018-10-19T13:07:21.992Z,5.00
2018-10-19T13:08:22.016Z,5.00